Lafayette, CO (80026)

8:38 AM MDT on August 23, 2014 (GMT -0600)
Waneka Pointe | Change Station
CLOSE
Current Station
Personal Weather Station
Location: Lafayette, CO
Elevation: 5331 ft
Nearby Weather Stations

Elev 5331 ft 40.00 °N, 105.11 °W | Updated 5 seconds ago

Overcast
Overcast
61.7 °F
Feels Like 61.7 °F
N
1.1
Wind Variable Wind from WNW
Gusts 2.2 mph

Today
High -- | Low -- °F
--% Chance of Precip.
Yesterday
High -- | Low -- °F
Precip. -- in
6:19 AM 7:45 PM
Waning Crescent, 4% visible
Pressure 29.96 in
Visibility 3.0 miles
Clouds Overcast 300 ft
Dew Point 58 °F
Humidity 86%
Rainfall 0.00 in
Snow Depth Not available.
UV 1 out of 12
Pollen 9.20 out of 12
Ozone Good
PM2.5 Good
Flu Activity Not available.
METAR KEIK 231435Z AUTO 00000KT 3SM BR OVC003 15/15 A2996 RMK AO2 T01530152

More Conditions Fewer Conditions

Pressure 29.96 in
Visibility 3.0 miles
Clouds Overcast 300 ft
Dew Point 58 °F
Humidity 86%
Rainfall 0.00 in
Snow Depth Not available.
UV 1 out of 12
Pollen 9.20 out of 12
Ozone Good
PM2.5 Good
Flu Activity Not available.
METAR KEIK 231435Z AUTO 00000KT 3SM BR OVC003 15/15 A2996 RMK AO2 T01530152

More Conditions Fewer Conditions

10-Day Weather Forecast

Almanac

Astronomy

Aug. 23, 2014 Rise Set
Actual Time 6:19 AM MDT 7:45 PM MDT
Civil Twilight 5:51 AM MDT 8:13 PM MDT
Nautical Twilight 5:17 AM MDT 8:47 PM MDT
Astronomical Twilight 4:41 AM MDT 9:23 PM MDT
Moon 4:38 AM MDT 6:31 PM MDT
Length of Visible Light 14h 22m
Length of Day
13h 25m
Tomorrow will be 2m 26s shorter.
Waning Crescent, 4% of the Moon is Illuminated
Today
Waning Crescent
Aug 25
New
Sep 2
First Quarter
Sep 8
Full
Sep 15
Last Quarter

Today's Extremes

State Highs State Lows

Community

WunderPhotos

Upload Photos

1,746,473 photos uploaded!

WunderBlogs® & News

By Dr. Jeff Masters
Director of Meteorology, Weather Underground
By Kari Strenfel
Meteorologist, Weather Underground
By Christopher C. Burt
Weather Historian, Weather Underground
August 23, 2014
August 23, 2014
August 23, 2014

Nearby

Air Quality

  Air Quality AQ Index Pollutant
Yesterday Good
OZONE
Yesterday Good
PM10
Current Good
PM2.5
Current Good
OZONE
Saturday Good
OZONE
Saturday Good
PM2.5

Snow Depth

Station Depth Elevation
Niwot 1 in 9910 ft
University Camp 0 in 10300 ft
Copeland Lake 0 in 8600 ft
Wild Basin 1 in 9560 ft
Echo Lake 0 in 10600 ft

Earthquake Activity

City Distance Mag. Time & Date
No recent earthquake activity has been reported nearby.
Minimum magnitude displayed is 2.5.

Coastal Water Temperatures

Place Temperature
No Stations Reporting

Nearby Weather Stations